Time;durP1;ratioP1;P1;durP2;ratioP2;P2;SDS_P1;SDS_P2;PMS_P1;PMS_P2;Temp;Humidity;BMP_temperature;BMP_pressure;BME280_temperature;BME280_humidity;BME280_pressure;Samples;Min_cycle;Max_cycle;Signal;HPM_P1;HPM_P2
2022/01/14 00:01:10;;;;;;;19.42;6.05;;;7.00;99.90;;;;;;4987783;28;20030;-73
2022/01/14 00:03:36;;;;;;;19.20;5.93;;;7.00;99.90;;;;;;4987626;28;20023;-74
2022/01/14 00:06:02;;;;;;;23.08;6.68;;;7.00;99.90;;;;;;4986265;28;20030;-74
2022/01/14 00:08:28;;;;;;;17.77;5.20;;;7.10;99.90;;;;;;4987949;28;20482;-74
2022/01/14 00:10:56;;;;;;;28.85;6.07;;;7.00;99.90;;;;;;4989892;28;20546;-74
2022/01/14 00:13:50;;;;;;;17.05;5.43;;;7.00;99.90;;;;;;4985631;28;20043;-74
2022/01/14 00:16:16;;;;;;;13.73;4.45;;;7.00;99.90;;;;;;4986819;28;20026;-74
2022/01/14 00:18:41;;;;;;;14.63;5.43;;;7.00;99.90;;;;;;4989672;28;20106;-74
2022/01/14 00:21:07;;;;;;;20.33;5.60;;;7.10;99.90;;;;;;4989293;28;20492;-74
2022/01/14 00:23:37;;;;;;;16.20;5.40;;;7.10;99.90;;;;;;4987491;28;20041;-74
2022/01/14 00:32:48;;;;;;;20.02;5.20;;;7.00;99.90;;;;;;4984963;28;20069;-74
2022/01/14 00:34:30;;;;;;;17.40;5.18;;;7.00;99.90;;;;;;4976855;28;20046;-74
2022/01/14 00:36:56;;;;;;;18.08;6.13;;;7.00;99.90;;;;;;4990367;28;20030;-74
2022/01/14 00:39:21;;;;;;;16.73;5.15;;;7.00;99.90;;;;;;4987828;28;20108;-74
2022/01/14 00:41:47;;;;;;;23.27;5.90;;;7.00;99.90;;;;;;4984950;28;20027;-74
2022/01/14 00:44:14;;;;;;;29.17;6.55;;;7.00;99.90;;;;;;4988438;28;20038;-74
2022/01/14 00:46:45;;;;;;;20.00;5.68;;;7.00;99.90;;;;;;4989447;28;20069;-74
2022/01/14 00:49:11;;;;;;;16.83;5.70;;;7.00;99.90;;;;;;4983905;28;20022;-74
2022/01/14 00:51:37;;;;;;;22.42;6.53;;;7.00;99.90;;;;;;4988243;28;20018;-74
2022/01/14 00:54:04;;;;;;;18.70;6.00;;;7.00;99.90;;;;;;4985872;28;20026;-74
2022/01/14 00:59:14;;;;;;;15.90;4.80;;;7.00;99.90;;;;;;4987323;28;20027;-74
2022/01/14 01:01:51;;;;;;;15.15;5.22;;;7.00;99.90;;;;;;4985614;28;20377;-73
2022/01/14 01:04:22;;;;;;;14.77;5.60;;;7.00;99.90;;;;;;4987136;28;20030;-74
2022/01/14 01:06:49;;;;;;;22.63;5.75;;;7.10;99.90;;;;;;4987775;28;20739;-74
2022/01/14 01:09:15;;;;;;;20.67;6.30;;;7.10;99.90;;;;;;4983786;28;20050;-74
2022/01/14 01:11:52;;;;;;;13.38;5.55;;;7.00;99.90;;;;;;4983162;28;20027;-74
2022/01/14 01:14:38;;;;;;;16.25;4.88;;;7.00;99.90;;;;;;4991629;28;20026;-74
2022/01/14 01:17:04;;;;;;;21.30;5.45;;;7.00;99.90;;;;;;4991323;28;20510;-74
2022/01/14 01:19:30;;;;;;;18.25;4.90;;;7.00;99.90;;;;;;4988428;28;20038;-74
2022/01/14 01:21:56;;;;;;;18.85;5.32;;;7.00;99.90;;;;;;4984975;28;20031;-74
2022/01/14 01:24:22;;;;;;;18.42;5.53;;;7.00;99.90;;;;;;4988735;28;20550;-74
2022/01/14 01:26:50;;;;;;;19.00;5.70;;;7.00;99.90;;;;;;4990179;28;20080;-74
2022/01/14 01:29:42;;;;;;;19.70;4.93;;;7.00;99.90;;;;;;4989385;28;20027;-74
2022/01/14 01:32:08;;;;;;;23.67;5.40;;;7.00;99.90;;;;;;5003850;22;20452;-74
2022/01/14 01:34:34;;;;;;;16.77;5.65;;;6.90;99.90;;;;;;4997465;28;20030;-74
2022/01/14 01:37:02;;;;;;;19.15;5.55;;;6.90;99.90;;;;;;4983413;28;20037;-74
2022/01/14 01:39:32;;;;;;;17.80;5.75;;;6.90;99.90;;;;;;4983551;28;20118;-74
2022/01/14 01:42:05;;;;;;;15.03;5.00;;;6.90;99.90;;;;;;4978453;28;20065;-75
2022/01/14 01:44:33;;;;;;;18.30;5.80;;;6.90;99.90;;;;;;4971346;28;20030;-73
2022/01/14 01:46:59;;;;;;;13.70;4.85;;;6.90;99.90;;;;;;4969803;28;20105;-75
2022/01/14 01:49:31;;;;;;;18.13;5.35;;;6.90;99.90;;;;;;4970952;28;20109;-74
2022/01/14 01:51:57;;;;;;;16.65;5.05;;;6.90;99.90;;;;;;4969458;28;20109;-75
2022/01/14 01:54:25;;;;;;;19.48;5.38;;;6.90;99.90;;;;;;4970322;28;20065;-75
2022/01/14 01:56:51;;;;;;;12.32;4.38;;;6.90;99.90;;;;;;4972553;28;20026;-74
2022/01/14 01:59:22;;;;;;;17.77;4.53;;;6.90;99.90;;;;;;4970743;28;20511;-74
2022/01/14 02:01:49;;;;;;;16.30;5.20;;;6.90;99.90;;;;;;4969544;28;20034;-75
2022/01/14 02:04:14;;;;;;;12.88;4.50;;;6.90;99.90;;;;;;4969903;28;20110;-74
2022/01/14 02:06:41;;;;;;;16.67;4.88;;;6.90;99.90;;;;;;4969755;28;20066;-74
2022/01/14 02:09:09;;;;;;;16.05;5.00;;;6.90;99.90;;;;;;4970838;28;20018;-74
2022/01/14 02:11:34;;;;;;;22.92;5.32;;;6.90;99.90;;;;;;4968538;28;20031;-73
2022/01/14 02:14:05;;;;;;;20.45;4.75;;;6.90;99.90;;;;;;4968062;28;20455;-74
2022/01/14 02:19:15;;;;;;;11.80;4.25;;;6.90;99.90;;;;;;4967502;28;20035;-74
2022/01/14 02:27:05;;;;;;;19.27;3.95;;;6.90;99.90;;;;;;4978763;28;20073;-75
2022/01/14 02:29:30;;;;;;;17.23;4.20;;;6.90;99.90;;;;;;4978757;28;20022;-74
2022/01/14 02:31:56;;;;;;;14.23;3.83;;;7.00;99.90;;;;;;4995665;28;20116;-74
2022/01/14 02:34:22;;;;;;;11.95;4.05;;;7.00;99.90;;;;;;4977350;28;21064;-74
2022/01/14 02:36:48;;;;;;;18.88;4.93;;;6.90;99.90;;;;;;4977514;28;20051;-74
2022/01/14 02:39:17;;;;;;;15.00;3.95;;;6.90;99.90;;;;;;4978881;28;20030;-73
2022/01/14 02:41:44;;;;;;;13.40;4.95;;;6.90;99.90;;;;;;4976149;28;20073;-74
2022/01/14 02:44:17;;;;;;;17.67;3.80;;;6.90;99.90;;;;;;4977000;28;20022;-75
2022/01/14 02:46:52;;;;;;;8.43;4.35;;;6.90;99.90;;;;;;4978493;28;20022;-75
2022/01/14 02:49:18;;;;;;;15.18;4.43;;;6.90;99.90;;;;;;4977147;28;20034;-74
2022/01/14 02:51:44;;;;;;;12.77;3.95;;;6.90;99.90;;;;;;4975730;28;20058;-74
2022/01/14 02:54:16;;;;;;;19.08;4.72;;;6.90;99.90;;;;;;4977310;28;20112;-73
2022/01/14 02:56:44;;;;;;;11.52;3.80;;;6.90;99.90;;;;;;4977677;28;20113;-74
2022/01/14 02:59:10;;;;;;;14.98;4.07;;;6.90;99.90;;;;;;4975154;28;20475;-74
2022/01/14 03:01:37;;;;;;;12.13;3.67;;;6.90;99.90;;;;;;4976545;28;20555;-74
2022/01/14 03:04:04;;;;;;;25.00;4.80;;;7.00;99.90;;;;;;4975634;28;20105;-74
2022/01/14 03:06:31;;;;;;;13.02;4.20;;;7.00;99.90;;;;;;4977223;28;20022;-75
2022/01/14 03:09:00;;;;;;;15.75;5.28;;;6.90;99.90;;;;;;4979095;28;20775;-75
2022/01/14 03:11:28;;;;;;;16.55;4.35;;;6.90;99.90;;;;;;4976704;28;20046;-75
2022/01/14 03:13:54;;;;;;;16.00;4.50;;;6.90;99.90;;;;;;4975574;28;20035;-75
2022/01/14 03:16:20;;;;;;;14.57;4.03;;;7.00;99.90;;;;;;4977140;28;20031;-74
2022/01/14 03:18:50;;;;;;;17.08;4.63;;;7.00;99.90;;;;;;4977360;28;20617;-74
2022/01/14 03:21:25;;;;;;;16.75;4.28;;;7.00;99.90;;;;;;4979672;28;20066;-75
2022/01/14 03:24:02;;;;;;;15.98;4.97;;;7.00;99.90;;;;;;4973340;28;20039;-75
2022/01/14 03:26:28;;;;;;;22.20;4.90;;;7.00;99.90;;;;;;4970933;28;20054;-74
2022/01/14 03:28:54;;;;;;;15.98;4.00;;;7.00;99.90;;;;;;4976579;28;20484;-74
2022/01/14 03:31:20;;;;;;;17.13;4.60;;;7.00;99.90;;;;;;4978038;28;20507;-74
2022/01/14 03:33:46;;;;;;;17.67;4.20;;;7.00;99.90;;;;;;4974598;28;20023;-74
2022/01/14 03:36:13;;;;;;;16.23;4.72;;;7.00;99.90;;;;;;4976855;28;20535;-75
2022/01/14 03:38:39;;;;;;;11.77;4.05;;;6.90;99.90;;;;;;4975712;28;20031;-74
2022/01/14 03:41:06;;;;;;;9.98;3.90;;;6.90;99.90;;;;;;4976846;28;20027;-74
2022/01/14 03:43:33;;;;;;;16.75;4.95;;;6.90;99.90;;;;;;4978622;28;20031;-75
2022/01/14 03:46:02;;;;;;;14.35;4.88;;;7.00;99.90;;;;;;4977596;28;20034;-74
2022/01/14 03:48:27;;;;;;;16.10;4.25;;;7.00;99.90;;;;;;4979128;28;20069;-75
2022/01/14 03:50:53;;;;;;;15.60;4.45;;;7.00;99.90;;;;;;4974325;28;20504;-73
2022/01/14 03:53:19;;;;;;;18.83;4.70;;;7.00;99.90;;;;;;4976822;28;20411;-75
2022/01/14 03:55:45;;;;;;;14.32;5.15;;;7.00;99.90;;;;;;4975800;28;20288;-75
2022/01/14 03:58:11;;;;;;;24.60;5.75;;;7.00;99.90;;;;;;4973887;28;20092;-74
2022/01/14 04:00:37;;;;;;;19.98;5.43;;;7.00;99.90;;;;;;4978092;28;20503;-74
2022/01/14 04:03:03;;;;;;;15.45;5.15;;;7.00;99.90;;;;;;4975898;28;20124;-74
2022/01/14 04:05:29;;;;;;;19.05;5.55;;;7.00;99.90;;;;;;4976413;28;20042;-75
2022/01/14 04:07:55;;;;;;;15.48;5.10;;;7.00;99.90;;;;;;4972586;28;20089;-75
2022/01/14 04:10:22;;;;;;;25.38;6.00;;;7.00;99.90;;;;;;4974167;28;20502;-75
2022/01/14 04:12:55;;;;;;;19.52;5.68;;;7.00;99.90;;;;;;4976584;28;20046;-74
2022/01/14 04:18:07;;;;;;;17.50;5.45;;;6.90;99.90;;;;;;4978876;28;20034;-74
2022/01/14 04:20:37;;;;;;;23.95;5.93;;;6.90;99.90;;;;;;4974565;28;20034;-74
2022/01/14 04:23:06;;;;;;;19.73;5.40;;;6.90;99.90;;;;;;4969854;28;20043;-73
2022/01/14 04:25:34;;;;;;;16.10;5.57;;;6.90;99.90;;;;;;4966990;28;20031;-74
2022/01/14 04:28:01;;;;;;;17.55;6.15;;;6.90;99.90;;;;;;4968279;28;20050;-74
2022/01/14 04:30:27;;;;;;;16.15;5.38;;;6.90;99.90;;;;;;4973138;28;20029;-74
2022/01/14 04:32:52;;;;;;;14.43;5.57;;;6.90;99.90;;;;;;4975848;28;20099;-74
2022/01/14 04:35:18;;;;;;;21.92;6.57;;;6.90;99.90;;;;;;4960356;28;20436;-74
2022/01/14 04:37:44;;;;;;;17.42;5.80;;;6.90;99.90;;;;;;4976003;28;20113;-74
2022/01/14 04:40:13;;;;;;;20.17;6.53;;;6.90;99.90;;;;;;4978849;28;20035;-73
2022/01/14 04:42:41;;;;;;;15.48;5.40;;;6.90;99.90;;;;;;4974357;28;20046;-74
2022/01/14 04:45:09;;;;;;;16.73;5.78;;;7.00;99.90;;;;;;4977486;28;20035;-73
2022/01/14 04:47:44;;;;;;;23.00;6.00;;;6.90;99.90;;;;;;4976794;28;20035;-74
2022/01/14 04:50:15;;;;;;;19.20;6.43;;;6.90;99.90;;;;;;4976438;28;20051;-74
2022/01/14 04:52:43;;;;;;;16.40;5.53;;;6.90;99.90;;;;;;4974008;28;20121;-74
2022/01/14 04:55:10;;;;;;;21.42;6.03;;;7.00;99.90;;;;;;4977361;28;20035;-74
2022/01/14 04:57:36;;;;;;;12.05;4.70;;;7.00;99.90;;;;;;4975801;28;20039;-74
2022/01/14 05:00:05;;;;;;;26.45;6.35;;;6.90;99.90;;;;;;4975766;28;20026;-74
2022/01/14 05:02:31;;;;;;;15.27;4.68;;;6.90;99.90;;;;;;4972718;28;20064;-74
2022/01/14 05:04:59;;;;;;;22.90;5.65;;;6.90;99.90;;;;;;4974740;28;20027;-73
2022/01/14 05:07:26;;;;;;;14.80;4.28;;;6.90;99.90;;;;;;4977481;28;20555;-74
2022/01/14 05:12:40;;;;;;;15.13;4.28;;;6.90;99.90;;;;;;4975868;28;20032;-74
2022/01/14 05:15:07;;;;;;;20.38;4.90;;;6.90;99.90;;;;;;4973323;28;20030;-74
2022/01/14 05:17:34;;;;;;;20.30;5.10;;;7.00;99.90;;;;;;4975042;28;20061;-75
2022/01/14 05:19:59;;;;;;;14.98;4.15;;;7.00;99.90;;;;;;4978082;28;20022;-73
2022/01/14 05:22:26;;;;;;;15.68;4.53;;;6.90;99.90;;;;;;4978104;28;20400;-74
2022/01/14 05:24:52;;;;;;;17.20;4.68;;;6.90;99.90;;;;;;4977650;28;20532;-74
2022/01/14 05:27:18;;;;;;;14.98;4.22;;;6.90;99.90;;;;;;4976265;28;20081;-74
2022/01/14 05:29:43;;;;;;;23.13;4.72;;;7.00;99.90;;;;;;4977427;28;20031;-73
2022/01/14 05:32:14;;;;;;;18.95;4.63;;;7.00;99.90;;;;;;4975562;28;20145;-74
2022/01/14 05:34:44;;;;;;;17.73;4.32;;;6.90;99.90;;;;;;4977415;28;20069;-74
2022/01/14 05:37:13;;;;;;;14.93;4.57;;;6.90;99.90;;;;;;4975936;28;20039;-74
2022/01/14 05:39:39;;;;;;;19.20;4.40;;;7.00;99.90;;;;;;4973343;28;20022;-74
2022/01/14 05:42:09;;;;;;;18.67;4.85;;;6.90;99.90;;;;;;4974493;28;20030;-74
2022/01/14 05:44:35;;;;;;;11.32;3.92;;;6.90;99.90;;;;;;4975221;28;20503;-74
2022/01/14 05:47:01;;;;;;;18.25;4.45;;;6.90;99.90;;;;;;4975851;28;20031;-74
2022/01/14 05:49:27;;;;;;;13.95;4.50;;;6.90;99.90;;;;;;4974078;28;20065;-74
2022/01/14 05:51:53;;;;;;;17.33;3.83;;;6.90;99.90;;;;;;4975485;28;20476;-74
2022/01/14 05:54:20;;;;;;;15.43;3.85;;;6.90;99.90;;;;;;4977418;28;20477;-74
2022/01/14 05:56:46;;;;;;;16.92;3.88;;;6.90;99.90;;;;;;4975632;28;20116;-74
2022/01/14 05:59:12;;;;;;;13.68;3.65;;;6.90;99.90;;;;;;4977370;28;20037;-74
2022/01/14 06:01:39;;;;;;;14.25;4.00;;;6.90;99.90;;;;;;4977353;28;20034;-74
2022/01/14 06:04:05;;;;;;;13.95;3.90;;;6.90;99.90;;;;;;4977534;28;20065;-74
2022/01/14 06:06:32;;;;;;;17.05;3.60;;;6.90;99.90;;;;;;4980005;28;20074;-74
2022/01/14 06:08:58;;;;;;;13.65;3.60;;;6.90;99.90;;;;;;4980245;28;20027;-73
2022/01/14 06:11:24;;;;;;;12.95;3.10;;;6.90;99.90;;;;;;4976310;28;20027;-74
2022/01/14 06:13:50;;;;;;;19.23;3.63;;;7.00;99.90;;;;;;4976053;28;20137;-73
2022/01/14 06:16:16;;;;;;;19.67;4.05;;;7.00;99.90;;;;;;4978068;28;20031;-74
2022/01/14 06:18:42;;;;;;;16.17;4.22;;;6.90;99.90;;;;;;4976514;28;21669;-74
2022/01/14 06:21:08;;;;;;;22.92;5.18;;;6.90;99.90;;;;;;4977735;28;20035;-75
2022/01/14 06:23:34;;;;;;;24.58;4.10;;;6.90;99.90;;;;;;4975715;28;20026;-73
2022/01/14 06:26:01;;;;;;;17.00;3.83;;;6.80;99.90;;;;;;4973602;28;20034;-74
2022/01/14 06:28:29;;;;;;;21.95;3.63;;;6.80;99.90;;;;;;4981267;28;20093;-73
2022/01/14 06:30:56;;;;;;;15.73;3.33;;;6.80;99.90;;;;;;4978265;28;20031;-74
2022/01/14 06:33:22;;;;;;;16.45;3.22;;;6.80;99.90;;;;;;4981310;28;20034;-74
2022/01/14 06:35:49;;;;;;;12.80;3.22;;;6.80;99.90;;;;;;4975290;28;20480;-73
2022/01/14 06:38:19;;;;;;;25.13;4.50;;;6.80;99.90;;;;;;4972974;28;20110;-73
2022/01/14 06:40:48;;;;;;;17.42;3.78;;;6.80;99.90;;;;;;4976110;28;20030;-73
2022/01/14 06:43:15;;;;;;;29.30;4.25;;;6.80;99.90;;;;;;4980083;28;20037;-73
2022/01/14 06:45:41;;;;;;;18.50;3.95;;;6.80;99.90;;;;;;4979734;28;20026;-73
2022/01/14 06:48:08;;;;;;;25.77;4.80;;;6.80;99.90;;;;;;4977639;28;20034;-72
2022/01/14 06:50:33;;;;;;;14.52;3.78;;;6.80;99.90;;;;;;4979045;28;20113;-73
2022/01/14 06:52:59;;;;;;;15.40;3.38;;;6.90;99.90;;;;;;4981997;28;20158;-76
2022/01/14 06:55:25;;;;;;;12.82;4.05;;;6.80;99.90;;;;;;4978231;28;20033;-73
2022/01/14 06:57:51;;;;;;;22.08;4.10;;;6.80;99.90;;;;;;4980518;28;20030;-73
2022/01/14 07:00:19;;;;;;;18.23;3.88;;;6.80;99.90;;;;;;4979537;28;20028;-73
2022/01/14 07:02:45;;;;;;;17.60;4.15;;;6.80;99.90;;;;;;4965908;28;20345;-73
2022/01/14 07:05:11;;;;;;;21.50;3.70;;;6.80;99.90;;;;;;4966886;28;20544;-72
2022/01/14 07:07:37;;;;;;;23.48;5.55;;;6.70;99.90;;;;;;4978918;28;20018;-72
2022/01/14 07:10:07;;;;;;;20.00;4.13;;;6.80;99.90;;;;;;4972579;28;20476;-72
2022/01/14 07:12:40;;;;;;;13.93;3.90;;;6.80;99.90;;;;;;4967219;28;20092;-70
2022/01/14 07:15:10;;;;;;;17.73;4.13;;;6.80;99.90;;;;;;4967668;28;20022;-73
2022/01/14 07:17:36;;;;;;;13.77;3.70;;;6.80;99.90;;;;;;4974974;28;20503;-73
2022/01/14 07:20:07;;;;;;;18.73;4.35;;;6.80;99.90;;;;;;4968115;28;20724;-72
2022/01/14 07:22:33;;;;;;;18.67;4.25;;;6.80;99.90;;;;;;4972939;28;20027;-73
2022/01/14 07:24:59;;;;;;;19.52;3.90;;;6.80;99.90;;;;;;4973803;28;20034;-73
2022/01/14 07:27:26;;;;;;;24.67;4.28;;;6.80;99.90;;;;;;4973407;28;20026;-73
2022/01/14 07:29:52;;;;;;;16.80;3.88;;;6.80;99.90;;;;;;4975556;28;20032;-72
2022/01/14 07:32:18;;;;;;;21.75;4.95;;;6.80;99.90;;;;;;5001032;23;20389;-72
2022/01/14 07:34:45;;;;;;;25.67;4.82;;;6.80;99.90;;;;;;4967270;28;20092;-72
2022/01/14 07:37:11;;;;;;;19.23;4.00;;;6.80;99.90;;;;;;4968923;28;20058;-72
2022/01/14 07:39:37;;;;;;;20.25;5.13;;;6.80;99.90;;;;;;4966948;28;20114;-72
2022/01/14 07:42:03;;;;;;;13.82;3.47;;;6.80;99.90;;;;;;4967451;28;20412;-72
2022/01/14 07:44:28;;;;;;;20.33;4.72;;;6.90;99.90;;;;;;4959068;28;20066;-72
2022/01/14 07:46:54;;;;;;;23.40;4.95;;;6.90;99.90;;;;;;4956672;28;20145;-72
2022/01/14 07:49:20;;;;;;;19.98;4.63;;;6.80;99.90;;;;;;4958047;28;20035;-72
2022/01/14 07:51:45;;;;;;;19.90;4.32;;;6.90;99.90;;;;;;4954724;28;20371;-72
2022/01/14 07:54:11;;;;;;;25.67;4.82;;;6.80;99.90;;;;;;4956438;28;20035;-72
2022/01/14 07:56:40;;;;;;;21.42;4.55;;;6.90;99.90;;;;;;4955305;28;20035;-72
2022/01/14 07:59:06;;;;;;;19.02;3.97;;;6.90;99.90;;;;;;4951747;28;20070;-72
2022/01/14 08:01:33;;;;;;;12.63;3.50;;;6.90;99.90;;;;;;4951398;28;20031;-72
2022/01/14 08:04:00;;;;;;;22.63;5.03;;;6.90;99.90;;;;;;4953768;28;20110;-72
2022/01/14 08:06:27;;;;;;;28.15;4.72;;;6.90;99.90;;;;;;4951592;28;20090;-72
2022/01/14 08:08:53;;;;;;;18.38;4.25;;;6.90;99.90;;;;;;4950973;28;20031;-72
2022/01/14 08:11:19;;;;;;;22.00;4.22;;;6.90;99.90;;;;;;4950178;28;20134;-72
2022/01/14 08:13:45;;;;;;;24.98;4.05;;;6.90;99.90;;;;;;4948776;28;21230;-73
2022/01/14 08:16:10;;;;;;;15.80;3.72;;;6.90;99.90;;;;;;4948414;28;20030;-73
2022/01/14 08:18:36;;;;;;;15.50;3.92;;;6.90;99.90;;;;;;4952295;28;20027;-72
2022/01/14 08:21:06;;;;;;;15.70;3.67;;;6.90;99.90;;;;;;4935910;28;20031;-72
2022/01/14 08:23:32;;;;;;;15.95;4.07;;;6.90;99.90;;;;;;4953171;28;20043;-73
2022/01/14 08:25:57;;;;;;;18.17;3.50;;;6.90;99.90;;;;;;4954862;28;20038;-72
2022/01/14 08:28:27;;;;;;;15.00;3.42;;;7.00;99.90;;;;;;4936487;28;20039;-73
2022/01/14 08:30:53;;;;;;;26.25;5.50;;;7.00;99.90;;;;;;4956268;28;20043;-73
2022/01/14 08:33:19;;;;;;;19.85;4.22;;;7.00;99.90;;;;;;4953277;28;20070;-72
2022/01/14 08:35:46;;;;;;;15.07;3.92;;;7.00;99.90;;;;;;4953589;28;20039;-73
2022/01/14 08:38:12;;;;;;;25.23;4.47;;;7.00;99.90;;;;;;4954547;28;20038;-72
2022/01/14 08:40:38;;;;;;;28.05;5.38;;;7.00;99.90;;;;;;4952316;28;20493;-72
2022/01/14 08:43:05;;;;;;;18.13;4.47;;;7.00;99.90;;;;;;4960262;28;20058;-72
2022/01/14 08:45:30;;;;;;;28.90;4.82;;;7.00;99.90;;;;;;4956086;28;20027;-72
2022/01/14 08:47:56;;;;;;;27.52;4.75;;;7.00;99.90;;;;;;4958304;28;20556;-72
2022/01/14 08:50:26;;;;;;;23.52;5.93;;;7.00;99.90;;;;;;4959604;28;20023;-72
2022/01/14 08:52:52;;;;;;;19.70;4.32;;;6.90;99.90;;;;;;4962139;28;20039;-74
2022/01/14 08:55:19;;;;;;;23.35;5.25;;;6.90;99.90;;;;;;4957881;28;20101;-73
2022/01/14 08:57:46;;;;;;;24.90;4.75;;;6.90;99.90;;;;;;4954284;28;20417;-73
2022/01/14 09:00:14;;;;;;;24.00;5.43;;;6.90;99.90;;;;;;4956527;28;20035;-73
2022/01/14 09:02:40;;;;;;;21.02;5.10;;;6.90;99.90;;;;;;4954455;28;20035;-73
2022/01/14 09:05:07;;;;;;;36.25;6.15;;;6.90;99.90;;;;;;4954791;28;20531;-73
2022/01/14 09:07:33;;;;;;;26.05;5.40;;;6.90;99.90;;;;;;4957369;28;20042;-73
2022/01/14 09:09:58;;;;;;;28.80;6.90;;;6.90;99.90;;;;;;4957129;28;20031;-73
2022/01/14 09:12:24;;;;;;;21.35;5.93;;;7.00;99.90;;;;;;4958641;28;20078;-74
2022/01/14 09:14:50;;;;;;;17.02;5.82;;;6.90;99.90;;;;;;4957327;28;20481;-74
2022/01/14 09:17:17;;;;;;;21.45;6.03;;;6.90;99.90;;;;;;4947087;28;20077;-74
2022/01/14 09:19:44;;;;;;;25.42;6.03;;;6.90;99.90;;;;;;4944126;28;20039;-72
2022/01/14 09:22:10;;;;;;;30.10;5.95;;;6.80;99.90;;;;;;4947804;28;20495;-72
2022/01/14 09:24:36;;;;;;;21.13;5.78;;;6.90;99.90;;;;;;4944626;28;20027;-72
2022/01/14 09:27:02;;;;;;;28.58;6.15;;;6.90;99.90;;;;;;4947280;28;20085;-73
2022/01/14 09:29:29;;;;;;;30.13;7.22;;;6.80;99.90;;;;;;4944637;28;20031;-72
2022/01/14 09:31:55;;;;;;;33.35;7.35;;;6.80;99.90;;;;;;4955526;28;20035;-74
2022/01/14 09:34:20;;;;;;;24.83;7.07;;;6.90;99.90;;;;;;4960665;28;20033;-74
2022/01/14 09:36:46;;;;;;;24.52;7.35;;;6.80;99.90;;;;;;4960736;28;20033;-73
2022/01/14 09:39:12;;;;;;;28.30;7.93;;;6.80;99.90;;;;;;4960683;28;20033;-73
2022/01/14 09:41:38;;;;;;;32.40;7.50;;;6.80;99.90;;;;;;4960681;28;20420;-73
2022/01/14 09:44:04;;;;;;;25.75;6.22;;;6.80;99.90;;;;;;4964852;28;20030;-73
2022/01/14 09:46:31;;;;;;;23.85;6.07;;;6.90;99.90;;;;;;4962558;28;20519;-73
2022/01/14 09:48:57;;;;;;;28.80;7.05;;;6.90;99.90;;;;;;4960720;28;20035;-74
2022/01/14 09:51:23;;;;;;;31.15;7.03;;;6.80;99.90;;;;;;4958968;28;20030;-73
2022/01/14 09:53:48;;;;;;;20.58;6.38;;;6.90;99.90;;;;;;4963156;28;20063;-73
2022/01/14 09:56:18;;;;;;;27.20;5.95;;;6.90;99.90;;;;;;4961700;28;20429;-73
2022/01/14 09:58:47;;;;;;;35.22;6.80;;;6.90;99.90;;;;;;4962944;28;20588;-74
2022/01/14 10:01:15;;;;;;;20.33;6.03;;;6.90;99.90;;;;;;4961424;28;20031;-74
2022/01/14 10:04:02;;;;;;;29.17;6.95;;;6.90;99.90;;;;;;4959884;28;20062;-73
2022/01/14 10:06:53;;;;;;;27.73;6.45;;;6.90;99.90;;;;;;4962379;28;20118;-74
2022/01/14 10:09:25;;;;;;;26.23;6.65;;;6.90;99.90;;;;;;4962657;28;20027;-73
2022/01/14 10:12:05;;;;;;;23.23;6.18;;;6.90;99.90;;;;;;4962517;28;20027;-73
2022/01/14 10:14:32;;;;;;;20.52;7.18;;;6.90;99.90;;;;;;4963380;28;20031;-74
2022/01/14 10:17:00;;;;;;;28.88;7.35;;;6.90;99.90;;;;;;4960491;28;20043;-73
2022/01/14 10:19:30;;;;;;;21.38;7.03;;;6.90;99.90;;;;;;4962482;28;20035;-73
2022/01/14 10:21:56;;;;;;;25.02;7.40;;;6.90;99.90;;;;;;4961214;28;20077;-73
2022/01/14 10:24:26;;;;;;;20.08;6.88;;;6.90;99.90;;;;;;4961665;28;20035;-73
2022/01/14 10:26:59;;;;;;;21.70;7.30;;;6.90;99.90;;;;;;4963153;28;20035;-73
2022/01/14 10:29:28;;;;;;;20.40;6.65;;;6.90;99.90;;;;;;4959742;28;20024;-73
2022/01/14 10:31:57;;;;;;;25.75;7.40;;;6.90;99.90;;;;;;4960663;28;20516;-75
2022/01/14 10:34:23;;;;;;;18.10;6.68;;;7.00;99.90;;;;;;4960966;28;20042;-73
2022/01/14 10:36:50;;;;;;;18.50;6.30;;;7.00;99.90;;;;;;4962932;28;20027;-74
2022/01/14 10:39:25;;;;;;;17.13;6.35;;;7.00;99.90;;;;;;4957828;28;20492;-74
2022/01/14 10:41:52;;;;;;;13.15;7.07;;;7.00;99.90;;;;;;4956460;28;20408;-74
2022/01/14 10:44:28;;;;;;;18.20;7.00;;;7.00;99.90;;;;;;4947923;28;20031;-74
2022/01/14 10:47:29;;;;;;;23.13;8.48;;;7.00;99.90;;;;;;4947257;28;20125;-74
2022/01/14 10:49:58;;;;;;;21.20;7.65;;;7.00;99.90;;;;;;4909450;29;20032;-74
2022/01/14 10:52:25;;;;;;;28.75;8.60;;;7.00;99.90;;;;;;4938368;28;22877;-74
2022/01/14 10:55:01;;;;;;;18.05;7.65;;;7.10;99.90;;;;;;4947455;28;20049;-73
2022/01/14 10:57:29;;;;;;;23.63;7.65;;;7.10;99.90;;;;;;4945443;28;23291;-73
2022/01/14 11:00:12;;;;;;;18.17;8.30;;;7.10;99.90;;;;;;4945827;28;20081;-73
2022/01/14 11:02:41;;;;;;;19.98;7.28;;;7.10;99.90;;;;;;4946554;28;20030;-73
2022/01/14 11:05:12;;;;;;;15.20;6.63;;;7.10;99.90;;;;;;4948764;28;20031;-73
2022/01/14 11:07:42;;;;;;;17.92;6.43;;;7.10;99.90;;;;;;4949661;28;20031;-73
2022/01/14 11:10:15;;;;;;;10.90;5.55;;;7.10;99.90;;;;;;4948215;28;20498;-73
2022/01/14 11:12:42;;;;;;;20.95;6.63;;;7.20;99.90;;;;;;4968802;28;20022;-73
2022/01/14 11:15:09;;;;;;;17.48;5.68;;;7.20;99.90;;;;;;4967616;28;20031;-73
2022/01/14 11:17:37;;;;;;;13.13;5.22;;;7.20;99.90;;;;;;4960077;28;20041;-73
2022/01/14 11:20:10;;;;;;;12.05;4.65;;;7.20;99.90;;;;;;4959977;28;20027;-73
2022/01/14 11:25:22;;;;;;;12.25;4.20;;;7.20;99.90;;;;;;4957719;28;20031;-71
2022/01/14 11:27:59;;;;;;;14.40;5.32;;;7.20;99.90;;;;;;4959369;28;20456;-72
2022/01/14 11:30:40;;;;;;;14.50;4.70;;;7.30;99.90;;;;;;4959744;28;20027;-72
2022/01/14 11:33:08;;;;;;;8.63;3.90;;;7.30;99.90;;;;;;4957320;28;20492;-72
2022/01/14 11:35:37;;;;;;;12.10;4.45;;;7.30;99.90;;;;;;4961041;28;20753;-72
2022/01/14 11:38:23;;;;;;;11.95;4.88;;;7.20;99.90;;;;;;4956671;28;20027;-72
2022/01/14 11:40:50;;;;;;;13.85;3.88;;;7.20;99.90;;;;;;4958685;28;20054;-72
2022/01/14 11:43:49;;;;;;;11.63;3.50;;;7.20;99.90;;;;;;4958578;28;20622;-72
2022/01/14 11:46:35;;;;;;;6.53;2.92;;;7.20;99.90;;;;;;4961202;28;20808;-72
2022/01/14 11:49:03;;;;;;;9.48;3.17;;;7.30;99.90;;;;;;4953399;28;20058;-72
2022/01/14 11:51:28;;;;;;;8.82;3.20;;;7.20;99.90;;;;;;4962132;28;20035;-72
2022/01/14 11:54:14;;;;;;;8.05;3.42;;;7.30;99.90;;;;;;4961327;28;20034;-72
2022/01/14 11:56:45;;;;;;;10.18;3.28;;;7.30;99.90;;;;;;4958430;28;20507;-72
2022/01/14 11:59:22;;;;;;;8.37;3.13;;;7.30;99.90;;;;;;4959220;28;20038;-72
2022/01/14 12:01:53;;;;;;;6.00;2.58;;;7.40;99.90;;;;;;4957938;28;20333;-72
2022/01/14 12:04:19;;;;;;;;;;;7.40;99.90;;;;;;4957311;28;20201;-73
2022/01/14 12:06:59;;;;;;;6.90;2.63;;;7.40;99.90;;;;;;4959106;28;20350;-72
2022/01/14 12:09:32;;;;;;;9.73;3.20;;;7.40;99.90;;;;;;4960705;28;20034;-72
2022/01/14 12:12:20;;;;;;;6.40;3.03;;;7.40;99.90;;;;;;4957210;28;20437;-72
2022/01/14 12:14:55;;;;;;;8.88;2.90;;;7.40;99.90;;;;;;4960390;28;20035;-72
2022/01/14 12:17:35;;;;;;;5.85;3.15;;;7.40;99.90;;;;;;4959121;28;20133;-72
2022/01/14 12:20:15;;;;;;;7.70;2.50;;;7.40;99.90;;;;;;4963921;28;20081;-72
2022/01/14 12:22:42;;;;;;;5.93;2.60;;;7.50;99.90;;;;;;4957477;28;20122;-73
2022/01/14 12:25:09;;;;;;;5.07;2.00;;;7.50;99.90;;;;;;4960194;28;20042;-72
2022/01/14 12:27:42;;;;;;;4.55;2.40;;;7.50;99.90;;;;;;4960838;28;20027;-72
2022/01/14 12:30:17;;;;;;;5.75;2.50;;;7.60;99.90;;;;;;4959028;28;20035;-73
2022/01/14 12:32:46;;;;;;;5.18;2.50;;;7.60;99.90;;;;;;4957343;28;20039;-73
2022/01/14 12:35:18;;;;;;;7.28;2.60;;;7.50;99.90;;;;;;4940243;28;20494;-73
2022/01/14 12:37:57;;;;;;;3.78;2.40;;;7.50;99.90;;;;;;4956447;28;20037;-73
2022/01/14 12:40:27;;;;;;;7.10;2.53;;;7.50;99.90;;;;;;4960110;28;20420;-73
2022/01/14 12:42:59;;;;;;;7.38;3.10;;;7.60;99.90;;;;;;4957699;28;20093;-72
2022/01/14 12:45:36;;;;;;;4.82;2.90;;;7.60;99.90;;;;;;4958411;28;20030;-72
2022/01/14 12:48:12;;;;;;;8.13;2.40;;;7.60;99.90;;;;;;4959680;28;20035;-73
2022/01/14 12:50:38;;;;;;;9.40;2.72;;;7.60;99.90;;;;;;4959021;28;20030;-73
2022/01/14 12:53:04;;;;;;;5.88;2.33;;;7.60;99.90;;;;;;4957236;28;20444;-73
2022/01/14 12:55:34;;;;;;;8.43;3.13;;;7.70;99.90;;;;;;4954543;28;20038;-73
2022/01/14 12:58:00;;;;;;;5.05;2.78;;;7.60;99.90;;;;;;4950342;28;20544;-72
2022/01/14 13:00:26;;;;;;;7.78;2.90;;;7.70;99.90;;;;;;4950378;28;20062;-73
2022/01/14 13:02:54;;;;;;;8.20;3.00;;;7.70;99.90;;;;;;4951076;28;20226;-75
2022/01/14 13:05:21;;;;;;;5.32;2.85;;;7.70;99.90;;;;;;4954225;28;20027;-73
2022/01/14 13:07:48;;;;;;;6.60;2.70;;;7.70;99.90;;;;;;4950313;28;20122;-73
2022/01/14 13:10:16;;;;;;;9.40;3.13;;;7.80;99.90;;;;;;4952131;28;20496;-72
2022/01/14 13:12:44;;;;;;;4.88;2.70;;;7.80;99.90;;;;;;4954643;28;20105;-73
2022/01/14 13:15:14;;;;;;;6.60;3.28;;;7.80;99.90;;;;;;4954464;28;20066;-72
2022/01/14 13:17:49;;;;;;;8.70;2.70;;;7.80;99.90;;;;;;4951247;28;20082;-73
2022/01/14 13:20:16;;;;;;;4.80;2.42;;;7.80;99.90;;;;;;4957501;28;20074;-73